sensor_id;sensor_type;location;lat;lon;timestamp;pressure;altitude;pressure_sealevel;temperature;humidity
79544;BME280;68994;47.176;7.534;2023-05-21T00:00:59;95602.94;;;11.77;85.04
79544;BME280;68994;47.176;7.534;2023-05-21T00:03:27;95602.94;;;11.77;84.90
79544;BME280;68994;47.176;7.534;2023-05-21T00:05:55;95578.94;;;11.61;84.90
79544;BME280;68994;47.176;7.534;2023-05-21T00:08:22;95598.69;;;11.70;84.49
79544;BME280;68994;47.176;7.534;2023-05-21T00:10:49;95598.19;;;11.63;84.62
79544;BME280;68994;47.176;7.534;2023-05-21T00:13:17;95592.84;;;11.58;85.19
79544;BME280;68994;47.176;7.534;2023-05-21T00:15:43;95540.63;;;11.21;85.10
79544;BME280;68994;47.176;7.534;2023-05-21T00:18:10;95561.97;;;11.31;84.57
79544;BME280;68994;47.176;7.534;2023-05-21T00:20:37;95590.47;;;11.51;85.34
79544;BME280;68994;47.176;7.534;2023-05-21T00:23:05;95586.22;;;11.45;85.47
79544;BME280;68994;47.176;7.534;2023-05-21T00:25:32;95598.50;;;11.51;85.77
79544;BME280;68994;47.176;7.534;2023-05-21T00:27:59;95596.88;;;11.50;85.01
79544;BME280;68994;47.176;7.534;2023-05-21T00:30:27;95603.03;;;11.51;85.41
79544;BME280;68994;47.176;7.534;2023-05-21T00:32:54;95598.22;;;11.53;85.09
79544;BME280;68994;47.176;7.534;2023-05-21T00:35:23;95596.34;;;11.54;85.45
79544;BME280;68994;47.176;7.534;2023-05-21T00:37:49;95588.56;;;11.57;85.47
79544;BME280;68994;47.176;7.534;2023-05-21T00:40:17;95584.84;;;11.58;85.22
79544;BME280;68994;47.176;7.534;2023-05-21T00:42:44;95581.09;;;11.54;84.73
79544;BME280;68994;47.176;7.534;2023-05-21T00:45:12;95583.22;;;11.57;85.14
79544;BME280;68994;47.176;7.534;2023-05-21T00:47:42;95581.63;;;11.51;85.72
79544;BME280;68994;47.176;7.534;2023-05-21T00:50:10;95589.38;;;11.58;85.38
79544;BME280;68994;47.176;7.534;2023-05-21T00:52:39;95590.44;;;11.62;85.42
79544;BME280;68994;47.176;7.534;2023-05-21T00:55:08;95581.03;;;11.69;85.41
79544;BME280;68994;47.176;7.534;2023-05-21T00:57:35;95579.44;;;11.68;85.28
79544;BME280;68994;47.176;7.534;2023-05-21T01:00:04;95587.47;;;11.68;85.45
79544;BME280;68994;47.176;7.534;2023-05-21T01:02:34;95524.63;;;11.21;85.12
79544;BME280;68994;47.176;7.534;2023-05-21T01:05:03;95519.28;;;11.16;85.03
79544;BME280;68994;47.176;7.534;2023-05-21T01:07:31;95570.94;;;11.56;85.61
79544;BME280;68994;47.176;7.534;2023-05-21T01:10:00;95562.19;;;11.40;85.63
79544;BME280;68994;47.176;7.534;2023-05-21T01:12:29;95542.19;;;11.27;85.99
79544;BME280;68994;47.176;7.534;2023-05-21T01:15:14;95499.06;;;10.94;85.69
79544;BME280;68994;47.176;7.534;2023-05-21T01:17:42;95577.69;;;11.43;86.58
79544;BME280;68994;47.176;7.534;2023-05-21T01:20:11;95583.28;;;11.42;85.76
79544;BME280;68994;47.176;7.534;2023-05-21T01:25:10;95578.22;;;11.40;86.29
79544;BME280;68994;47.176;7.534;2023-05-21T01:27:37;95566.19;;;11.38;86.49
79544;BME280;68994;47.176;7.534;2023-05-21T01:30:05;95563.53;;;11.38;86.08
79544;BME280;68994;47.176;7.534;2023-05-21T01:32:37;95563.53;;;11.38;85.99
79544;BME280;68994;47.176;7.534;2023-05-21T01:35:08;95557.38;;;11.37;85.96
79544;BME280;68994;47.176;7.534;2023-05-21T01:37:42;95564.34;;;11.38;86.02
79544;BME280;68994;47.176;7.534;2023-05-21T01:40:15;95559.00;;;11.38;86.03
79544;BME280;68994;47.176;7.534;2023-05-21T01:42:44;95523.03;;;11.15;85.64
79544;BME280;68994;47.176;7.534;2023-05-21T01:45:13;95549.66;;;11.36;86.10
79544;BME280;68994;47.176;7.534;2023-05-21T01:47:43;95552.31;;;11.36;86.21
79544;BME280;68994;47.176;7.534;2023-05-21T01:50:12;95557.66;;;11.36;85.75
79544;BME280;68994;47.176;7.534;2023-05-21T01:52:47;95522.47;;;11.23;85.78
79544;BME280;68994;47.176;7.534;2023-05-21T01:55:19;95525.63;;;11.30;85.35
79544;BME280;68994;47.176;7.534;2023-05-21T01:57:49;95553.91;;;11.42;85.52
79544;BME280;68994;47.176;7.534;2023-05-21T02:00:17;95552.00;;;11.47;85.77
79544;BME280;68994;47.176;7.534;2023-05-21T02:02:44;95536.78;;;11.48;85.20
79544;BME280;68994;47.176;7.534;2023-05-21T02:05:11;95510.09;;;11.38;84.99
79544;BME280;68994;47.176;7.534;2023-05-21T02:07:37;95545.00;;;11.62;84.52
79544;BME280;68994;47.176;7.534;2023-05-21T02:10:05;95539.41;;;11.58;83.84
79544;BME280;68994;47.176;7.534;2023-05-21T02:12:33;95543.97;;;11.52;84.13
79544;BME280;68994;47.176;7.534;2023-05-21T02:15:00;95545.31;;;11.50;84.46
79544;BME280;68994;47.176;7.534;2023-05-21T02:17:27;95515.22;;;11.29;84.64
79544;BME280;68994;47.176;7.534;2023-05-21T02:19:55;95550.97;;;11.43;84.80
79544;BME280;68994;47.176;7.534;2023-05-21T02:22:22;95553.38;;;11.40;85.00
79544;BME280;68994;47.176;7.534;2023-05-21T02:24:48;95535.28;;;11.26;84.45
79544;BME280;68994;47.176;7.534;2023-05-21T02:27:15;95535.03;;;11.23;84.95
79544;BME280;68994;47.176;7.534;2023-05-21T02:29:43;95544.03;;;11.37;85.01
79544;BME280;68994;47.176;7.534;2023-05-21T02:32:10;95541.09;;;11.39;84.87
79544;BME280;68994;47.176;7.534;2023-05-21T02:34:36;95541.63;;;11.36;84.93
79544;BME280;68994;47.176;7.534;2023-05-21T02:37:06;95547.25;;;11.34;85.55
79544;BME280;68994;47.176;7.534;2023-05-21T02:39:33;95542.19;;;11.27;85.09
79544;BME280;68994;47.176;7.534;2023-05-21T02:42:00;95546.75;;;11.27;85.41
79544;BME280;68994;47.176;7.534;2023-05-21T02:44:27;95543.81;;;11.28;85.58
79544;BME280;68994;47.176;7.534;2023-05-21T02:46:55;95555.00;;;11.30;85.78
79544;BME280;68994;47.176;7.534;2023-05-21T02:49:21;95546.78;;;11.22;85.48
79544;BME280;68994;47.176;7.534;2023-05-21T02:51:48;95537.19;;;11.05;85.75
79544;BME280;68994;47.176;7.534;2023-05-21T02:54:15;95516.41;;;10.92;85.92
79544;BME280;68994;47.176;7.534;2023-05-21T02:56:41;95498.56;;;10.82;85.53
79544;BME280;68994;47.176;7.534;2023-05-21T02:59:08;95549.72;;;11.20;85.53
79544;BME280;68994;47.176;7.534;2023-05-21T03:01:35;95558.00;;;11.19;85.64
79544;BME280;68994;47.176;7.534;2023-05-21T03:04:03;95552.38;;;11.20;85.49
79544;BME280;68994;47.176;7.534;2023-05-21T03:06:30;95560.38;;;11.20;85.60
79544;BME280;68994;47.176;7.534;2023-05-21T03:08:58;95554.50;;;11.23;85.47
79544;BME280;68994;47.176;7.534;2023-05-21T03:11:26;95561.44;;;11.24;85.08
79544;BME280;68994;47.176;7.534;2023-05-21T03:13:52;95559.84;;;11.23;85.59
79544;BME280;68994;47.176;7.534;2023-05-21T03:16:19;95556.66;;;11.21;85.69
79544;BME280;68994;47.176;7.534;2023-05-21T03:18:46;95549.19;;;11.18;85.67
79544;BME280;68994;47.176;7.534;2023-05-21T03:21:14;95556.69;;;11.16;85.24
79544;BME280;68994;47.176;7.534;2023-05-21T03:23:42;95557.19;;;11.18;86.17
79544;BME280;68994;47.176;7.534;2023-05-21T03:26:08;95526.78;;;11.04;85.67
79544;BME280;68994;47.176;7.534;2023-05-21T03:28:35;95555.31;;;11.19;86.23
79544;BME280;68994;47.176;7.534;2023-05-21T03:31:02;95553.72;;;11.18;85.97
79544;BME280;68994;47.176;7.534;2023-05-21T03:33:29;95550.00;;;11.13;85.47
79544;BME280;68994;47.176;7.534;2023-05-21T03:35:55;95552.69;;;11.08;86.35
79544;BME280;68994;47.176;7.534;2023-05-21T03:38:23;95470.31;;;10.55;85.90
79544;BME280;68994;47.176;7.534;2023-05-21T03:40:50;95552.94;;;11.12;86.58
79544;BME280;68994;47.176;7.534;2023-05-21T03:43:17;95558.78;;;11.14;86.20
79544;BME280;68994;47.176;7.534;2023-05-21T03:45:43;95556.69;;;11.16;86.01
79544;BME280;68994;47.176;7.534;2023-05-21T03:48:11;95555.59;;;11.12;85.65
79544;BME280;68994;47.176;7.534;2023-05-21T03:50:37;95559.91;;;11.08;85.86
79544;BME280;68994;47.176;7.534;2023-05-21T03:53:04;95554.56;;;10.98;85.83
79544;BME280;68994;47.176;7.534;2023-05-21T03:55:32;95527.66;;;10.73;85.27
79544;BME280;68994;47.176;7.534;2023-05-21T03:57:58;95571.69;;;10.91;85.77
79544;BME280;68994;47.176;7.534;2023-05-21T04:00:25;95567.41;;;10.85;85.83
79544;BME280;68994;47.176;7.534;2023-05-21T04:02:52;95579.69;;;10.91;86.43
79544;BME280;68994;47.176;7.534;2023-05-21T04:05:19;95577.56;;;10.83;85.53
79544;BME280;68994;47.176;7.534;2023-05-21T04:07:45;95585.03;;;10.81;85.51
79544;BME280;68994;47.176;7.534;2023-05-21T04:10:12;95591.97;;;10.77;86.10
79544;BME280;68994;47.176;7.534;2023-05-21T04:12:40;95595.72;;;10.76;85.59
79544;BME280;68994;47.176;7.534;2023-05-21T04:15:07;95593.06;;;10.76;86.30
79544;BME280;68994;47.176;7.534;2023-05-21T04:17:34;95601.59;;;10.83;86.02
79544;BME280;68994;47.176;7.534;2023-05-21T04:20:01;95605.03;;;10.84;85.61
79544;BME280;68994;47.176;7.534;2023-05-21T04:22:28;95603.72;;;10.86;86.31
79544;BME280;68994;47.176;7.534;2023-05-21T04:24:55;95575.97;;;10.67;86.12
79544;BME280;68994;47.176;7.534;2023-05-21T04:27:24;95601.31;;;10.85;86.56
79544;BME280;68994;47.176;7.534;2023-05-21T04:29:52;95607.44;;;10.90;85.63
79544;BME280;68994;47.176;7.534;2023-05-21T04:32:19;95610.91;;;10.91;86.10
79544;BME280;68994;47.176;7.534;2023-05-21T04:34:46;95611.47;;;10.88;85.49
79544;BME280;68994;47.176;7.534;2023-05-21T04:37:13;95614.41;;;10.81;85.67
79544;BME280;68994;47.176;7.534;2023-05-21T04:39:42;95617.06;;;10.81;85.76
79544;BME280;68994;47.176;7.534;2023-05-21T04:42:08;95614.66;;;10.80;86.15
79544;BME280;68994;47.176;7.534;2023-05-21T04:44:36;95619.19;;;10.79;85.86
79544;BME280;68994;47.176;7.534;2023-05-21T04:47:05;95621.06;;;10.84;86.78
79544;BME280;68994;47.176;7.534;2023-05-21T04:49:33;95624.00;;;10.82;85.63
79544;BME280;68994;47.176;7.534;2023-05-21T04:52:00;95619.22;;;10.84;86.57
79544;BME280;68994;47.176;7.534;2023-05-21T04:54:27;95622.13;;;10.88;86.98
79544;BME280;68994;47.176;7.534;2023-05-21T04:56:54;95621.88;;;10.89;87.11
79544;BME280;68994;47.176;7.534;2023-05-21T04:59:20;95621.56;;;10.91;86.11
79544;BME280;68994;47.176;7.534;2023-05-21T05:01:47;95624.53;;;10.94;86.00
79544;BME280;68994;47.176;7.534;2023-05-21T05:04:15;95571.69;;;10.66;84.87
79544;BME280;68994;47.176;7.534;2023-05-21T05:06:42;95619.19;;;11.00;86.11
79544;BME280;68994;47.176;7.534;2023-05-21T05:09:09;95625.56;;;11.04;85.82
79544;BME280;68994;47.176;7.534;2023-05-21T05:11:36;95625.56;;;11.09;86.21
79544;BME280;68994;47.176;7.534;2023-05-21T05:14:02;95625.28;;;11.16;85.71
79544;BME280;68994;47.176;7.534;2023-05-21T05:16:29;95565.28;;;10.77;86.29
79544;BME280;68994;47.176;7.534;2023-05-21T05:18:56;95611.66;;;11.17;86.37
79544;BME280;68994;47.176;7.534;2023-05-21T05:21:24;95627.41;;;11.29;86.01
79544;BME280;68994;47.176;7.534;2023-05-21T05:23:50;95619.63;;;11.32;85.61
79544;BME280;68994;47.176;7.534;2023-05-21T05:26:17;95574.84;;;11.04;84.81
79544;BME280;68994;47.176;7.534;2023-05-21T05:28:44;95628.47;;;11.38;85.02
79544;BME280;68994;47.176;7.534;2023-05-21T05:31:11;95632.72;;;11.39;85.03
79544;BME280;68994;47.176;7.534;2023-05-21T05:33:38;95634.06;;;11.42;84.36
79544;BME280;68994;47.176;7.534;2023-05-21T05:36:06;95626.84;;;11.37;85.02
79544;BME280;68994;47.176;7.534;2023-05-21T05:38:35;95625.53;;;11.40;84.59
79544;BME280;68994;47.176;7.534;2023-05-21T05:41:01;95621.50;;;11.37;84.77
79544;BME280;68994;47.176;7.534;2023-05-21T05:43:28;95629.22;;;11.49;84.92
79544;BME280;68994;47.176;7.534;2023-05-21T05:45:55;95630.00;;;11.49;83.83
79544;BME280;68994;47.176;7.534;2023-05-21T05:48:21;95615.88;;;11.44;83.94
79544;BME280;68994;47.176;7.534;2023-05-21T05:50:48;95638.81;;;11.60;83.94
79544;BME280;68994;47.176;7.534;2023-05-21T05:53:18;95635.06;;;11.66;84.20
79544;BME280;68994;47.176;7.534;2023-05-21T05:55:47;95638.22;;;11.74;84.13
79544;BME280;68994;47.176;7.534;2023-05-21T05:58:14;95619.53;;;11.68;84.24
79544;BME280;68994;47.176;7.534;2023-05-21T06:00:40;95639.22;;;11.88;83.48
79544;BME280;68994;47.176;7.534;2023-05-21T06:03:07;95643.50;;;11.94;82.82
79544;BME280;68994;47.176;7.534;2023-05-21T06:05:34;95609.84;;;11.78;82.93
79544;BME280;68994;47.176;7.534;2023-05-21T06:08:00;95638.34;;;12.08;83.32
79544;BME280;68994;47.176;7.534;2023-05-21T06:10:27;95641.81;;;12.14;83.17
79544;BME280;68994;47.176;7.534;2023-05-21T06:12:55;95633.25;;;12.17;83.17
79544;BME280;68994;47.176;7.534;2023-05-21T06:15:22;95638.03;;;12.20;81.84
79544;BME280;68994;47.176;7.534;2023-05-21T06:17:48;95645.22;;;12.24;82.73
79544;BME280;68994;47.176;7.534;2023-05-21T06:20:15;95641.44;;;12.31;83.10
79544;BME280;68994;47.176;7.534;2023-05-21T06:22:42;95610.75;;;12.18;81.63
79544;BME280;68994;47.176;7.534;2023-05-21T06:25:10;95616.09;;;12.18;81.31
79544;BME280;68994;47.176;7.534;2023-05-21T06:27:37;95627.75;;;12.37;81.65
79544;BME280;68994;47.176;7.534;2023-05-21T06:30:06;95627.72;;;12.42;81.86
79544;BME280;68994;47.176;7.534;2023-05-21T06:32:33;95631.97;;;12.49;82.30
79544;BME280;68994;47.176;7.534;2023-05-21T06:34:59;95627.63;;;12.58;81.83
79544;BME280;68994;47.176;7.534;2023-05-21T06:37:26;95598.53;;;12.46;80.60
79544;BME280;68994;47.176;7.534;2023-05-21T06:39:53;95620.69;;;12.57;80.32
79544;BME280;68994;47.176;7.534;2023-05-21T06:42:19;95629.16;;;12.69;80.40
79544;BME280;68994;47.176;7.534;2023-05-21T06:44:46;95626.44;;;12.74;81.11
79544;BME280;68994;47.176;7.534;2023-05-21T06:47:14;95621.53;;;12.81;80.81
79544;BME280;68994;47.176;7.534;2023-05-21T06:49:41;95619.91;;;12.86;81.18
79544;BME280;68994;47.176;7.534;2023-05-21T06:52:07;95621.16;;;12.93;80.92
79544;BME280;68994;47.176;7.534;2023-05-21T06:54:34;95606.16;;;12.97;81.24
79544;BME280;68994;47.176;7.534;2023-05-21T06:57:01;95614.31;;;13.11;80.54
79544;BME280;68994;47.176;7.534;2023-05-21T06:59:27;95614.78;;;13.18;80.91
79544;BME280;68994;47.176;7.534;2023-05-21T07:01:54;95615.81;;;13.23;82.19
79544;BME280;68994;47.176;7.534;2023-05-21T07:04:22;95613.09;;;13.28;81.08
79544;BME280;68994;47.176;7.534;2023-05-21T07:06:49;95595.97;;;13.24;81.79
79544;BME280;68994;47.176;7.534;2023-05-21T07:09:16;95612.31;;;13.51;80.65
79544;BME280;68994;47.176;7.534;2023-05-21T07:11:43;95622.38;;;13.65;80.62
79544;BME280;68994;47.176;7.534;2023-05-21T07:14:09;95628.94;;;13.78;81.71
79544;BME280;68994;47.176;7.534;2023-05-21T07:16:36;95610.44;;;13.76;81.31
79544;BME280;68994;47.176;7.534;2023-05-21T07:19:03;95621.53;;;13.88;81.71
79544;BME280;68994;47.176;7.534;2023-05-21T07:21:31;95623.59;;;13.97;80.31
79544;BME280;68994;47.176;7.534;2023-05-21T07:23:58;95625.19;;;13.98;79.54
79544;BME280;68994;47.176;7.534;2023-05-21T07:26:24;95610.25;;;13.91;81.01
79544;BME280;68994;47.176;7.534;2023-05-21T07:28:51;95627.88;;;14.17;79.80
79544;BME280;68994;47.176;7.534;2023-05-21T07:31:18;95628.47;;;14.14;79.29
79544;BME280;68994;47.176;7.534;2023-05-21T07:33:48;95635.16;;;14.16;78.18
79544;BME280;68994;47.176;7.534;2023-05-21T07:36:14;95632.69;;;14.20;77.59
79544;BME280;68994;47.176;7.534;2023-05-21T07:38:43;95632.41;;;14.21;78.20
79544;BME280;68994;47.176;7.534;2023-05-21T07:41:10;95636.44;;;14.38;78.43
79544;BME280;68994;47.176;7.534;2023-05-21T07:43:37;95627.22;;;14.44;77.38
79544;BME280;68994;47.176;7.534;2023-05-21T07:46:04;95641.59;;;14.53;77.33
79544;BME280;68994;47.176;7.534;2023-05-21T07:48:31;95608.75;;;14.61;76.25
79544;BME280;68994;47.176;7.534;2023-05-21T07:50:57;95634.25;;;14.97;75.92
79544;BME280;68994;47.176;7.534;2023-05-21T07:53:24;95611.81;;;14.88;74.66
79544;BME280;68994;47.176;7.534;2023-05-21T07:55:52;95636.47;;;15.09;74.90
79544;BME280;68994;47.176;7.534;2023-05-21T07:58:19;95629.34;;;15.32;76.72
79544;BME280;68994;47.176;7.534;2023-05-21T08:00:47;95627.34;;;15.51;74.31
79544;BME280;68994;47.176;7.534;2023-05-21T08:03:16;95627.16;;;15.62;73.99
79544;BME280;68994;47.176;7.534;2023-05-21T08:05:43;95603.66;;;15.53;73.22
79544;BME280;68994;47.176;7.534;2023-05-21T08:08:13;95621.13;;;15.84;72.70
79544;BME280;68994;47.176;7.534;2023-05-21T08:10:39;95624.09;;;15.96;72.57
79544;BME280;68994;47.176;7.534;2023-05-21T08:13:10;95626.16;;;16.13;72.32
79544;BME280;68994;47.176;7.534;2023-05-21T08:15:37;95618.97;;;16.08;71.35
79544;BME280;68994;47.176;7.534;2023-05-21T08:18:04;95626.94;;;16.13;70.59
79544;BME280;68994;47.176;7.534;2023-05-21T08:20:31;95625.63;;;16.25;70.35
79544;BME280;68994;47.176;7.534;2023-05-21T08:22:59;95583.47;;;16.20;73.54
79544;BME280;68994;47.176;7.534;2023-05-21T08:25:26;95601.25;;;16.44;69.75
79544;BME280;68994;47.176;7.534;2023-05-21T08:27:52;95616.69;;;16.52;69.12
79544;BME280;68994;47.176;7.534;2023-05-21T08:30:20;95608.06;;;16.64;70.85
79544;BME280;68994;47.176;7.534;2023-05-21T08:32:47;95619.47;;;16.61;68.35
79544;BME280;68994;47.176;7.534;2023-05-21T08:35:14;95610.63;;;16.69;71.70
79544;BME280;68994;47.176;7.534;2023-05-21T08:37:41;95598.41;;;16.63;70.58
79544;BME280;68994;47.176;7.534;2023-05-21T08:40:09;95614.00;;;16.75;70.14
79544;BME280;68994;47.176;7.534;2023-05-21T08:42:41;95614.44;;;16.91;70.06
79544;BME280;68994;47.176;7.534;2023-05-21T08:45:10;95619.09;;;16.99;69.54
79544;BME280;68994;47.176;7.534;2023-05-21T08:47:40;95606.63;;;17.03;70.26
79544;BME280;68994;47.176;7.534;2023-05-21T08:50:09;95609.84;;;17.14;70.15
79544;BME280;68994;47.176;7.534;2023-05-21T08:52:36;95617.03;;;17.27;69.07
79544;BME280;68994;47.176;7.534;2023-05-21T08:55:04;95611.00;;;17.21;70.12
79544;BME280;68994;47.176;7.534;2023-05-21T08:57:31;95604.34;;;17.28;70.01
79544;BME280;68994;47.176;7.534;2023-05-21T08:59:58;95617.47;;;17.43;68.42
79544;BME280;68994;47.176;7.534;2023-05-21T09:02:26;95623.38;;;17.62;68.32
79544;BME280;68994;47.176;7.534;2023-05-21T09:04:56;95615.28;;;17.62;68.07
79544;BME280;68994;47.176;7.534;2023-05-21T09:07:24;95607.41;;;17.75;66.27
79544;BME280;68994;47.176;7.534;2023-05-21T09:09:54;95606.66;;;17.83;66.18
79544;BME280;68994;47.176;7.534;2023-05-21T09:12:22;95623.41;;;18.11;68.75
79544;BME280;68994;47.176;7.534;2023-05-21T09:14:49;95594.78;;;17.93;63.88
79544;BME280;68994;47.176;7.534;2023-05-21T09:17:16;95614.69;;;18.23;67.17
79544;BME280;68994;47.176;7.534;2023-05-21T09:20:05;95611.38;;;18.44;67.35
79544;BME280;68994;47.176;7.534;2023-05-21T09:22:35;95613.75;;;18.71;68.65
79544;BME280;68994;47.176;7.534;2023-05-21T09:25:04;95604.53;;;18.90;62.70
79544;BME280;68994;47.176;7.534;2023-05-21T09:27:32;95605.00;;;19.09;63.84
79544;BME280;68994;47.176;7.534;2023-05-21T09:29:59;95601.94;;;19.67;64.04
79544;BME280;68994;47.176;7.534;2023-05-21T09:32:26;95599.91;;;20.66;61.57
79544;BME280;68994;47.176;7.534;2023-05-21T09:34:52;95606.00;;;21.88;56.22
79544;BME280;68994;47.176;7.534;2023-05-21T09:37:20;95609.38;;;23.03;51.04
79544;BME280;68994;47.176;7.534;2023-05-21T09:39:47;95602.84;;;24.31;49.11
79544;BME280;68994;47.176;7.534;2023-05-21T09:42:14;95604.69;;;25.02;47.71
79544;BME280;68994;47.176;7.534;2023-05-21T09:44:42;95593.00;;;25.90;46.76
79544;BME280;68994;47.176;7.534;2023-05-21T09:47:09;95596.03;;;26.35;44.35
79544;BME280;68994;47.176;7.534;2023-05-21T09:49:36;95584.41;;;27.06;44.66
79544;BME280;68994;47.176;7.534;2023-05-21T09:52:03;95591.38;;;27.78;41.11
79544;BME280;68994;47.176;7.534;2023-05-21T09:54:31;95589.00;;;27.73;39.19
79544;BME280;68994;47.176;7.534;2023-05-21T09:56:59;95588.03;;;27.96;40.58
79544;BME280;68994;47.176;7.534;2023-05-21T09:59:34;95582.72;;;27.69;37.20
79544;BME280;68994;47.176;7.534;2023-05-21T10:02:01;95566.84;;;27.48;37.88
79544;BME280;68994;47.176;7.534;2023-05-21T10:04:29;95587.91;;;28.37;38.40
79544;BME280;68994;47.176;7.534;2023-05-21T10:06:58;95583.88;;;29.00;38.58
79544;BME280;68994;47.176;7.534;2023-05-21T10:09:26;95551.31;;;28.99;37.05
79544;BME280;68994;47.176;7.534;2023-05-21T10:11:58;95541.47;;;28.87;40.34
79544;BME280;68994;47.176;7.534;2023-05-21T10:14:26;95583.22;;;29.21;38.89
79544;BME280;68994;47.176;7.534;2023-05-21T10:16:56;95579.31;;;29.30;36.17
79544;BME280;68994;47.176;7.534;2023-05-21T10:19:23;95579.72;;;29.60;38.55
79544;BME280;68994;47.176;7.534;2023-05-21T10:21:51;95562.34;;;29.10;37.24
79544;BME280;68994;47.176;7.534;2023-05-21T10:24:17;95556.03;;;28.91;38.07
79544;BME280;68994;47.176;7.534;2023-05-21T10:26:45;95566.34;;;29.23;36.57
79544;BME280;68994;47.176;7.534;2023-05-21T10:29:14;95563.97;;;29.36;40.40
79544;BME280;68994;47.176;7.534;2023-05-21T10:31:42;95561.91;;;29.00;37.07
79544;BME280;68994;47.176;7.534;2023-05-21T10:34:13;95566.94;;;28.73;36.56
79544;BME280;68994;47.176;7.534;2023-05-21T10:36:40;95554.84;;;28.15;39.00
79544;BME280;68994;47.176;7.534;2023-05-21T10:39:07;95552.53;;;28.21;38.46
79544;BME280;68994;47.176;7.534;2023-05-21T10:41:44;95553.94;;;28.59;38.45
79544;BME280;68994;47.176;7.534;2023-05-21T10:44:20;95556.78;;;28.81;38.20
79544;BME280;68994;47.176;7.534;2023-05-21T10:47:06;95538.09;;;29.55;37.44
79544;BME280;68994;47.176;7.534;2023-05-21T10:49:49;95534.94;;;29.96;34.80
79544;BME280;68994;47.176;7.534;2023-05-21T10:52:34;95549.47;;;30.22;36.09
79544;BME280;68994;47.176;7.534;2023-05-21T10:55:12;95546.25;;;30.45;38.84
79544;BME280;68994;47.176;7.534;2023-05-21T11:00:44;95541.16;;;30.50;33.68
79544;BME280;68994;47.176;7.534;2023-05-21T11:03:11;95544.75;;;30.11;34.43
79544;BME280;68994;47.176;7.534;2023-05-21T11:05:39;95547.91;;;30.03;38.37
79544;BME280;68994;47.176;7.534;2023-05-21T11:08:19;95544.75;;;29.50;37.50
79544;BME280;68994;47.176;7.534;2023-05-21T11:10:51;95538.00;;;29.08;41.34
79544;BME280;68994;47.176;7.534;2023-05-21T11:13:18;95528.25;;;28.19;37.21
79544;BME280;68994;47.176;7.534;2023-05-21T11:16:06;95539.25;;;27.71;41.82
79544;BME280;68994;47.176;7.534;2023-05-21T11:19:03;95544.59;;;27.56;44.22
79544;BME280;68994;47.176;7.534;2023-05-21T11:21:32;95547.31;;;28.01;39.19
79544;BME280;68994;47.176;7.534;2023-05-21T11:24:01;95544.00;;;28.37;42.02
79544;BME280;68994;47.176;7.534;2023-05-21T11:26:58;95539.53;;;28.88;37.93
79544;BME280;68994;47.176;7.534;2023-05-21T11:29:17;95534.53;;;29.29;38.57
79544;BME280;68994;47.176;7.534;2023-05-21T11:31:48;95535.34;;;29.69;38.36
79544;BME280;68994;47.176;7.534;2023-05-21T11:34:26;95532.59;;;29.58;33.50
79544;BME280;68994;47.176;7.534;2023-05-21T11:37:29;95535.34;;;29.87;35.22
79544;BME280;68994;47.176;7.534;2023-05-21T11:40:15;95526.25;;;30.37;36.01
79544;BME280;68994;47.176;7.534;2023-05-21T11:42:42;95518.66;;;30.63;36.01
79544;BME280;68994;47.176;7.534;2023-05-21T11:45:16;95534.47;;;31.25;37.37
79544;BME280;68994;47.176;7.534;2023-05-21T11:47:45;95525.94;;;31.09;36.23
79544;BME280;68994;47.176;7.534;2023-05-21T11:50:14;95537.66;;;31.20;35.40
79544;BME280;68994;47.176;7.534;2023-05-21T11:52:41;95524.22;;;31.30;34.48
79544;BME280;68994;47.176;7.534;2023-05-21T11:55:08;95514.00;;;31.26;31.68
79544;BME280;68994;47.176;7.534;2023-05-21T11:57:36;95536.00;;;31.34;32.43
79544;BME280;68994;47.176;7.534;2023-05-21T12:00:04;95533.13;;;31.55;32.77
79544;BME280;68994;47.176;7.534;2023-05-21T12:02:42;95513.47;;;30.79;30.51
79544;BME280;68994;47.176;7.534;2023-05-21T12:05:11;95516.53;;;31.03;34.64
79544;BME280;68994;47.176;7.534;2023-05-21T12:07:37;95513.25;;;31.22;34.40
79544;BME280;68994;47.176;7.534;2023-05-21T12:10:05;95533.19;;;31.44;33.85
79544;BME280;68994;47.176;7.534;2023-05-21T12:12:32;95529.66;;;31.40;35.36
79544;BME280;68994;47.176;7.534;2023-05-21T12:15:00;95519.66;;;31.05;29.67
79544;BME280;68994;47.176;7.534;2023-05-21T12:17:27;95529.84;;;29.87;30.21
79544;BME280;68994;47.176;7.534;2023-05-21T12:19:56;95529.88;;;29.80;32.42
79544;BME280;68994;47.176;7.534;2023-05-21T12:22:24;95528.25;;;29.75;35.30
79544;BME280;68994;47.176;7.534;2023-05-21T12:24:52;95526.69;;;29.92;34.21
79544;BME280;68994;47.176;7.534;2023-05-21T12:27:20;95499.22;;;29.78;34.21
79544;BME280;68994;47.176;7.534;2023-05-21T12:29:49;95517.56;;;30.46;36.17
79544;BME280;68994;47.176;7.534;2023-05-21T12:32:16;95520.31;;;30.31;34.33
79544;BME280;68994;47.176;7.534;2023-05-21T12:34:43;95505.66;;;30.63;33.39
79544;BME280;68994;47.176;7.534;2023-05-21T12:37:19;95505.25;;;30.68;32.84
79544;BME280;68994;47.176;7.534;2023-05-21T12:39:49;95489.38;;;29.95;31.02
79544;BME280;68994;47.176;7.534;2023-05-21T12:42:24;95508.16;;;30.29;36.24
79544;BME280;68994;47.176;7.534;2023-05-21T12:44:52;95506.56;;;30.31;33.60
79544;BME280;68994;47.176;7.534;2023-05-21T12:47:22;95506.97;;;30.37;37.15
79544;BME280;68994;47.176;7.534;2023-05-21T12:49:52;95511.72;;;30.19;31.68
79544;BME280;68994;47.176;7.534;2023-05-21T12:52:20;95500.31;;;30.16;38.05
79544;BME280;68994;47.176;7.534;2023-05-21T12:54:50;95508.53;;;30.31;37.15
79544;BME280;68994;47.176;7.534;2023-05-21T12:57:18;95506.16;;;30.33;33.97
79544;BME280;68994;47.176;7.534;2023-05-21T12:59:51;95508.13;;;30.43;36.91
79544;BME280;68994;47.176;7.534;2023-05-21T13:02:22;95502.66;;;30.36;34.08
79544;BME280;68994;47.176;7.534;2023-05-21T13:04:54;95494.84;;;30.09;35.29
79544;BME280;68994;47.176;7.534;2023-05-21T13:07:21;95464.19;;;30.07;36.39
79544;BME280;68994;47.176;7.534;2023-05-21T13:09:49;95489.34;;;30.06;33.66
79544;BME280;68994;47.176;7.534;2023-05-21T13:12:18;95505.81;;;30.13;35.97